Time;durP1;ratioP1;P1;durP2;ratioP2;P2;SDS_P1;SDS_P2;PMS_P1;PMS_P2;Temp;Humidity;BMP_temperature;BMP_pressure;BME280_temperature;BME280_humidity;BME280_pressure;Samples;Min_cycle;Max_cycle;Signal;HPM_P1;HPM_P2
2022/04/18 00:01:59;;;;;;;2.90;2.10;;;8.70;99.90;;;;;;4892422;29;20774;-79
2022/04/18 00:04:26;;;;;;;2.33;1.63;;;8.70;99.90;;;;;;4893857;29;20213;-78
2022/04/18 00:06:53;;;;;;;3.97;1.93;;;8.70;99.90;;;;;;4892026;29;20231;-78
2022/04/18 00:09:19;;;;;;;2.17;1.73;;;8.80;99.90;;;;;;4896420;29;20275;-78
2022/04/18 00:11:46;;;;;;;2.27;1.63;;;8.80;99.90;;;;;;4894378;29;20218;-79
2022/04/18 00:14:13;;;;;;;5.00;2.00;;;8.80;99.90;;;;;;4890982;29;20707;-76
2022/04/18 00:16:39;;;;;;;3.40;1.83;;;8.70;99.90;;;;;;4895579;29;20211;-78
2022/04/18 00:19:06;;;;;;;3.17;1.90;;;8.70;99.90;;;;;;4899292;29;20228;-79
2022/04/18 00:21:33;;;;;;;3.27;2.00;;;8.80;99.90;;;;;;4893867;29;20213;-78
2022/04/18 00:23:59;;;;;;;2.63;1.73;;;8.70;99.90;;;;;;4896744;29;20678;-77
2022/04/18 00:26:26;;;;;;;3.57;1.70;;;8.50;99.90;;;;;;4894127;29;20224;-78
2022/04/18 00:28:53;;;;;;;2.93;2.00;;;8.50;99.90;;;;;;4893373;29;20216;-80
2022/04/18 00:31:19;;;;;;;1.97;1.60;;;8.50;99.90;;;;;;4892147;29;20616;-78
2022/04/18 00:33:46;;;;;;;2.17;1.80;;;8.50;99.90;;;;;;4896607;29;20683;-78
2022/04/18 00:36:13;;;;;;;2.63;1.90;;;8.60;99.90;;;;;;4894544;29;20209;-81
2022/04/18 00:38:40;;;;;;;2.80;1.93;;;8.60;99.90;;;;;;4891685;29;20206;-80
2022/04/18 00:41:07;;;;;;;2.20;1.63;;;8.60;99.90;;;;;;4891763;29;20206;-77
2022/04/18 00:43:40;;;;;;;3.17;2.00;;;8.60;99.90;;;;;;4893335;29;20210;-77
2022/04/18 00:46:08;;;;;;;4.13;2.07;;;8.60;99.90;;;;;;4891031;29;20708;-79
2022/04/18 00:48:35;;;;;;;3.93;1.93;;;8.60;99.90;;;;;;4889562;29;20664;-77
2022/04/18 00:51:04;;;;;;;3.13;2.07;;;8.40;99.90;;;;;;4906387;29;20344;-77
2022/04/18 00:53:32;;;;;;;2.37;1.70;;;8.30;99.90;;;;;;4896109;29;20205;-78
2022/04/18 00:55:59;;;;;;;5.10;1.90;;;8.30;99.90;;;;;;4896939;29;20201;-77
2022/04/18 00:58:26;;;;;;;3.07;1.80;;;8.30;99.90;;;;;;4895647;29;20266;-77
2022/04/18 01:00:53;;;;;;;2.67;1.80;;;8.30;99.90;;;;;;4899893;29;20215;-77
2022/04/18 01:03:20;;;;;;;5.60;2.97;;;8.30;99.90;;;;;;4901493;29;20204;-77
2022/04/18 01:05:48;;;;;;;4.00;2.10;;;8.30;99.90;;;;;;4903819;29;20209;-78
2022/04/18 01:08:15;;;;;;;2.80;1.97;;;8.30;99.90;;;;;;4901130;29;20603;-77
2022/04/18 01:10:44;;;;;;;2.40;1.80;;;8.20;99.90;;;;;;4891636;29;20224;-81
2022/04/18 01:13:11;;;;;;;3.03;1.90;;;8.20;99.90;;;;;;4900786;29;20197;-81
2022/04/18 01:15:38;;;;;;;3.10;2.00;;;8.00;99.90;;;;;;4899956;29;20198;-79
2022/04/18 01:18:05;;;;;;;4.63;2.40;;;7.80;99.90;;;;;;4896862;29;20203;-78
2022/04/18 01:20:36;;;;;;;3.33;2.37;;;7.80;99.90;;;;;;4896557;29;20285;-80
2022/04/18 01:23:05;;;;;;;4.73;2.70;;;7.80;99.90;;;;;;4900730;29;20201;-77
2022/04/18 01:31:03;;;;;;;2.97;2.10;;;8.00;99.90;;;;;;4899624;29;20578;-79
2022/04/18 01:33:29;;;;;;;5.50;2.90;;;8.00;99.90;;;;;;4898483;29;20200;-77
2022/04/18 01:35:56;;;;;;;4.07;2.70;;;7.90;99.90;;;;;;4899159;29;20216;-77
2022/04/18 01:38:24;;;;;;;3.93;2.20;;;7.80;99.90;;;;;;4894660;29;20685;-77
2022/04/18 01:40:50;;;;;;;3.17;2.40;;;7.80;99.90;;;;;;4900874;29;20208;-78
2022/04/18 01:43:17;;;;;;;5.47;2.70;;;7.80;99.90;;;;;;4894496;29;20673;-78
2022/04/18 01:45:44;;;;;;;4.27;2.70;;;7.70;99.90;;;;;;4894038;29;20230;-77
2022/04/18 01:48:11;;;;;;;5.03;2.70;;;7.60;99.90;;;;;;4896415;29;20453;-78
2022/04/18 01:50:39;;;;;;;3.03;2.00;;;7.60;99.90;;;;;;4908340;29;20223;-78
2022/04/18 01:53:05;;;;;;;3.07;2.00;;;7.50;99.90;;;;;;4908861;29;20196;-79
2022/04/18 01:55:32;;;;;;;3.97;2.60;;;7.50;99.90;;;;;;4907562;29;20201;-78
2022/04/18 01:57:59;;;;;;;4.33;2.43;;;7.40;99.90;;;;;;4898258;29;20200;-77
2022/04/18 02:00:26;;;;;;;3.33;2.40;;;7.40;99.90;;;;;;4896412;29;20235;-77
2022/04/18 02:02:53;;;;;;;5.53;2.40;;;7.30;99.90;;;;;;4894560;29;20207;-77
2022/04/18 02:05:20;;;;;;;4.37;2.73;;;7.30;99.90;;;;;;4891738;29;20211;-77
2022/04/18 02:07:46;;;;;;;3.87;2.43;;;7.20;99.90;;;;;;4899239;29;20227;-77
2022/04/18 02:10:13;;;;;;;5.20;2.37;;;7.30;99.90;;;;;;4895243;29;20219;-77
2022/04/18 02:12:40;;;;;;;4.27;2.13;;;7.20;99.90;;;;;;4897133;29;20609;-79
2022/04/18 02:15:07;;;;;;;3.40;2.40;;;7.20;99.90;;;;;;4896177;29;20641;-79
2022/04/18 02:17:34;;;;;;;3.23;2.10;;;7.20;99.90;;;;;;4901262;29;20269;-80
2022/04/18 02:20:01;;;;;;;2.37;1.93;;;7.10;99.90;;;;;;4911327;29;20243;-77
2022/04/18 02:22:28;;;;;;;4.93;2.20;;;7.00;99.90;;;;;;4898429;29;20261;-77
2022/04/18 02:24:57;;;;;;;3.33;2.40;;;6.80;99.90;;;;;;4897775;29;20251;-77
2022/04/18 02:27:25;;;;;;;2.70;2.10;;;6.70;99.90;;;;;;4900322;29;20227;-77
2022/04/18 02:29:51;;;;;;;3.67;2.40;;;6.50;99.90;;;;;;4899763;29;20220;-78
2022/04/18 02:35:04;;;;;;;4.80;2.50;;;6.20;99.90;;;;;;4895246;29;20203;-76
2022/04/18 02:37:30;;;;;;;5.20;2.50;;;6.20;99.90;;;;;;4894531;29;20256;-77
2022/04/18 02:39:59;;;;;;;3.70;2.30;;;6.20;99.90;;;;;;4897527;29;20224;-81
2022/04/18 02:42:26;;;;;;;3.97;2.20;;;6.30;99.90;;;;;;4893630;29;20650;-77
2022/04/18 02:44:53;;;;;;;2.50;2.20;;;6.30;99.90;;;;;;4894766;29;20279;-78
2022/04/18 02:47:20;;;;;;;3.37;2.50;;;6.30;99.90;;;;;;4896472;29;20702;-79
2022/04/18 02:49:46;;;;;;;2.53;1.93;;;6.20;99.90;;;;;;4890396;29;20215;-78
2022/04/18 02:52:13;;;;;;;4.07;2.87;;;6.30;99.90;;;;;;4895232;29;20197;-79
2022/04/18 02:54:39;;;;;;;4.33;2.53;;;6.10;99.90;;;;;;4897845;29;20224;-78
2022/04/18 02:57:06;;;;;;;4.90;2.50;;;6.00;99.90;;;;;;4895650;29;20614;-79
2022/04/18 02:59:33;;;;;;;3.87;2.43;;;5.90;99.90;;;;;;4897929;29;20227;-79
2022/04/18 03:01:59;;;;;;;2.80;2.10;;;5.80;99.90;;;;;;4892538;29;20740;-78
2022/04/18 03:04:26;;;;;;;4.50;2.73;;;5.70;99.90;;;;;;4896792;29;20207;-78
2022/04/18 03:06:53;;;;;;;3.67;2.73;;;5.90;99.90;;;;;;4890628;29;20327;-78
2022/04/18 03:09:19;;;;;;;5.17;2.53;;;5.80;99.90;;;;;;4894707;29;20694;-79
2022/04/18 03:11:46;;;;;;;3.40;2.17;;;5.70;99.90;;;;;;4897802;29;20674;-78
2022/04/18 03:14:13;;;;;;;4.20;2.73;;;5.70;99.90;;;;;;4895146;29;20659;-79
2022/04/18 03:16:40;;;;;;;3.20;2.50;;;5.60;99.90;;;;;;4895910;29;20242;-79
2022/04/18 03:19:06;;;;;;;3.60;2.37;;;5.50;99.90;;;;;;4892354;29;20292;-78
2022/04/18 03:21:33;;;;;;;4.57;2.70;;;5.40;99.90;;;;;;4895744;29;20216;-77
2022/04/18 03:23:59;;;;;;;2.90;2.17;;;5.40;99.90;;;;;;4892973;29;20222;-81
2022/04/18 03:26:26;;;;;;;4.43;2.43;;;5.30;99.90;;;;;;4890157;29;20209;-79
2022/04/18 03:28:53;;;;;;;3.83;2.33;;;5.30;99.90;;;;;;4897532;29;20228;-78
2022/04/18 03:31:19;;;;;;;3.57;2.53;;;5.30;99.90;;;;;;4887512;29;20210;-81
2022/04/18 03:33:46;;;;;;;3.43;2.10;;;5.10;99.90;;;;;;4894072;29;20198;-80
2022/04/18 03:41:43;;;;;;;4.87;2.40;;;5.10;99.90;;;;;;4895414;29;20623;-78
2022/04/18 03:44:10;;;;;;;2.67;2.23;;;5.10;99.90;;;;;;4886227;29;20206;-82
2022/04/18 03:46:37;;;;;;;3.63;2.20;;;5.10;99.90;;;;;;4892953;29;20669;-79
2022/04/18 03:49:03;;;;;;;4.47;2.20;;;5.10;99.90;;;;;;4890547;29;20923;-79
2022/04/18 03:51:30;;;;;;;3.20;2.13;;;5.10;99.90;;;;;;4890854;29;20395;-79
2022/04/18 03:53:57;;;;;;;3.33;2.47;;;5.20;99.90;;;;;;4891529;29;20204;-81
2022/04/18 03:56:23;;;;;;;4.40;2.40;;;5.30;99.90;;;;;;4890658;29;20260;-79
2022/04/18 03:58:50;;;;;;;2.97;2.37;;;5.50;99.90;;;;;;4894021;29;20224;-78
2022/04/18 04:01:16;;;;;;;2.77;2.43;;;5.40;99.90;;;;;;4893112;29;20217;-80
2022/04/18 04:03:45;;;;;;;4.20;2.70;;;5.40;99.90;;;;;;4893464;29;20209;-79
2022/04/18 04:06:12;;;;;;;3.97;2.27;;;5.20;99.90;;;;;;4893896;29;20200;-78
2022/04/18 04:08:39;;;;;;;3.77;2.10;;;5.10;99.90;;;;;;4891423;29;20237;-80
2022/04/18 04:11:06;;;;;;;2.87;2.07;;;5.10;99.90;;;;;;4891835;29;20195;-79
2022/04/18 04:13:32;;;;;;;4.57;2.57;;;5.10;99.90;;;;;;4909397;29;20213;-78
2022/04/18 04:15:59;;;;;;;3.77;2.40;;;5.10;99.90;;;;;;4889946;29;20203;-80
2022/04/18 04:18:26;;;;;;;3.97;2.50;;;5.20;99.90;;;;;;4896414;29;20212;-80
2022/04/18 04:20:52;;;;;;;3.13;2.23;;;5.20;99.90;;;;;;4904844;29;20201;-78
2022/04/18 04:23:19;;;;;;;2.77;2.20;;;5.30;99.90;;;;;;4895511;29;20229;-81
2022/04/18 04:25:46;;;;;;;4.23;2.53;;;5.30;99.90;;;;;;4890033;29;20199;-79
2022/04/18 04:28:12;;;;;;;2.77;2.20;;;5.40;99.90;;;;;;4892280;29;20227;-81
2022/04/18 04:30:39;;;;;;;3.37;2.53;;;5.30;99.90;;;;;;4882924;29;20224;-79
2022/04/18 04:33:06;;;;;;;4.10;2.20;;;5.30;99.90;;;;;;4901205;29;20625;-78
2022/04/18 04:35:32;;;;;;;4.87;2.87;;;5.20;99.90;;;;;;4899271;29;20203;-80
2022/04/18 04:37:59;;;;;;;4.37;2.33;;;5.10;99.90;;;;;;4912058;29;20691;-79
2022/04/18 04:40:27;;;;;;;4.60;2.27;;;5.20;99.90;;;;;;4908211;29;20312;-79
2022/04/18 04:42:53;;;;;;;3.27;2.10;;;5.30;99.90;;;;;;4900025;29;20602;-79
2022/04/18 04:45:20;;;;;;;3.50;2.17;;;5.40;99.90;;;;;;4898724;29;20209;-80
2022/04/18 04:47:46;;;;;;;4.10;2.47;;;5.50;99.90;;;;;;4894732;29;20227;-79
2022/04/18 04:50:13;;;;;;;3.40;2.10;;;5.60;99.90;;;;;;4898578;29;20726;-79
2022/04/18 04:52:40;;;;;;;5.10;2.27;;;5.50;99.90;;;;;;4913501;29;20204;-79
2022/04/18 04:55:13;;;;;;;3.90;2.40;;;5.40;99.90;;;;;;4899008;29;20260;-81
2022/04/18 04:57:39;;;;;;;4.20;2.90;;;5.40;99.90;;;;;;4912667;29;20211;-82
2022/04/18 05:00:06;;;;;;;4.13;2.20;;;5.40;99.90;;;;;;4898826;29;20222;-82
2022/04/18 05:02:33;;;;;;;4.53;2.33;;;5.50;99.90;;;;;;4901194;29;20208;-79
2022/04/18 05:04:59;;;;;;;3.37;2.13;;;5.60;99.90;;;;;;4901085;29;20206;-79
2022/04/18 05:07:26;;;;;;;2.93;2.07;;;5.70;99.90;;;;;;4893004;29;20231;-81
2022/04/18 05:09:53;;;;;;;4.77;2.30;;;5.70;99.90;;;;;;4896237;29;20217;-79
2022/04/18 05:12:20;;;;;;;3.17;2.20;;;5.90;99.90;;;;;;4897852;29;20205;-79
2022/04/18 05:14:46;;;;;;;2.40;1.87;;;5.90;99.90;;;;;;4902562;29;20235;-79
2022/04/18 05:17:13;;;;;;;2.97;2.10;;;5.90;99.90;;;;;;4896306;29;20198;-81
2022/04/18 05:19:40;;;;;;;3.43;2.00;;;5.90;99.90;;;;;;4895060;29;20225;-78
2022/04/18 05:22:06;;;;;;;2.97;2.10;;;5.90;99.90;;;;;;4898015;29;20205;-78
2022/04/18 05:24:33;;;;;;;4.10;2.50;;;6.00;99.90;;;;;;4894038;29;20205;-80
2022/04/18 05:26:59;;;;;;;3.27;2.30;;;6.00;99.90;;;;;;4896273;29;20197;-78
2022/04/18 05:29:26;;;;;;;3.20;2.30;;;6.20;99.90;;;;;;4898662;29;20224;-78
2022/04/18 05:31:53;;;;;;;3.27;2.30;;;6.20;99.90;;;;;;4895938;29;20208;-78
2022/04/18 05:34:19;;;;;;;6.00;2.40;;;6.40;99.90;;;;;;4898550;29;20207;-81
2022/04/18 05:36:46;;;;;;;3.97;2.30;;;6.50;99.90;;;;;;4912595;29;20203;-78
2022/04/18 05:39:13;;;;;;;2.73;2.00;;;6.80;99.90;;;;;;4903334;29;20232;-78
2022/04/18 05:41:39;;;;;;;4.00;2.00;;;6.90;99.90;;;;;;4898278;29;20231;-78
2022/04/18 05:44:06;;;;;;;2.87;2.17;;;7.10;99.90;;;;;;4898139;29;20242;-79
2022/04/18 05:46:32;;;;;;;3.80;2.00;;;7.20;99.90;;;;;;4896457;29;20215;-79
2022/04/18 05:48:59;;;;;;;3.93;2.10;;;7.40;99.90;;;;;;4894777;29;20236;-77
2022/04/18 05:51:26;;;;;;;1.97;1.77;;;7.60;99.90;;;;;;4890973;29;20669;-81
2022/04/18 05:53:52;;;;;;;3.23;1.93;;;7.80;99.90;;;;;;4896977;29;20259;-81
2022/04/18 05:56:19;;;;;;;3.37;2.20;;;8.10;99.90;;;;;;4895807;29;20215;-78
2022/04/18 05:58:45;;;;;;;5.07;2.53;;;8.20;99.90;;;;;;4890935;29;20236;-81
2022/04/18 06:01:12;;;;;;;3.57;2.17;;;8.40;99.90;;;;;;4894422;29;20205;-79
2022/04/18 06:03:40;;;;;;;3.17;2.17;;;8.40;99.90;;;;;;4903308;29;20332;-80
2022/04/18 06:06:07;;;;;;;4.47;1.90;;;8.60;99.90;;;;;;4895366;29;20205;-79
2022/04/18 06:08:33;;;;;;;2.87;2.13;;;8.70;99.90;;;;;;4892017;29;20227;-79
2022/04/18 06:11:00;;;;;;;5.50;2.40;;;8.80;99.90;;;;;;4894216;29;20247;-79
2022/04/18 06:13:26;;;;;;;4.60;2.10;;;8.90;99.90;;;;;;4890905;29;20250;-81
2022/04/18 06:15:53;;;;;;;2.83;1.90;;;9.10;99.90;;;;;;4893046;29;20606;-79
2022/04/18 06:18:20;;;;;;;3.33;2.00;;;9.10;99.90;;;;;;4907536;29;20206;-78
2022/04/18 06:20:47;;;;;;;3.73;2.03;;;9.20;99.90;;;;;;4891165;29;20271;-81
2022/04/18 06:23:17;;;;;;;2.30;1.90;;;9.20;99.90;;;;;;4889507;29;20240;-79
2022/04/18 06:25:44;;;;;;;3.40;2.00;;;9.50;99.90;;;;;;4905682;29;20205;-79
2022/04/18 06:28:14;;;;;;;2.50;2.10;;;9.60;99.90;;;;;;4891768;29;20223;-79
2022/04/18 06:30:42;;;;;;;4.43;2.03;;;9.80;99.90;;;;;;4906273;29;20229;-80
2022/04/18 06:33:12;;;;;;;2.23;1.67;;;9.80;99.90;;;;;;4891321;29;20960;-80
2022/04/18 06:35:41;;;;;;;4.10;2.13;;;9.90;99.90;;;;;;4897161;29;20195;-80
2022/04/18 06:38:08;;;;;;;3.37;1.77;;;9.90;99.90;;;;;;4893673;29;20239;-79
2022/04/18 06:40:35;;;;;;;3.10;2.03;;;10.10;99.90;;;;;;4892745;29;20328;-79
2022/04/18 06:43:01;;;;;;;3.93;1.97;;;10.20;99.90;;;;;;4893892;29;20207;-81
2022/04/18 06:45:30;;;;;;;4.63;2.10;;;10.30;99.90;;;;;;4895133;29;20599;-78
2022/04/18 06:47:57;;;;;;;3.27;2.17;;;10.30;99.90;;;;;;4894203;29;20223;-77
2022/04/18 06:50:23;;;;;;;2.50;1.97;;;10.30;99.90;;;;;;4888490;29;20310;-81
2022/04/18 06:52:50;;;;;;;7.40;1.90;;;10.50;99.90;;;;;;4892284;29;20200;-80
2022/04/18 06:55:17;;;;;;;4.37;2.03;;;10.60;99.90;;;;;;4894132;29;20211;-81
2022/04/18 06:57:44;;;;;;;5.10;2.33;;;10.70;99.90;;;;;;4893588;29;20201;-81
2022/04/18 07:00:11;;;;;;;4.30;2.33;;;10.70;99.90;;;;;;4893573;29;20228;-79
2022/04/18 07:02:46;;;;;;;5.17;1.90;;;10.80;99.90;;;;;;4884899;29;20237;-80
2022/04/18 07:05:13;;;;;;;4.70;2.30;;;10.90;99.90;;;;;;4887601;29;20200;-75
2022/04/18 07:07:40;;;;;;;5.30;2.17;;;11.10;99.90;;;;;;4892693;29;20357;-83
2022/04/18 07:10:07;;;;;;;4.10;2.03;;;11.30;99.90;;;;;;4888896;29;20224;-80
2022/04/18 07:12:33;;;;;;;3.27;2.00;;;11.50;99.90;;;;;;4890647;29;20207;-86
2022/04/18 07:15:00;;;;;;;3.40;2.20;;;11.80;99.90;;;;;;4889134;29;20208;-88
2022/04/18 07:17:27;;;;;;;2.70;2.20;;;12.10;99.90;;;;;;4890370;29;20662;-84
2022/04/18 07:19:53;;;;;;;4.70;2.70;;;12.40;99.90;;;;;;4891046;29;21719;-80
2022/04/18 07:22:20;;;;;;;3.13;2.37;;;12.80;99.90;;;;;;4890259;29;20230;-76
2022/04/18 07:24:47;;;;;;;4.20;2.47;;;12.90;99.90;;;;;;4890464;29;20215;-76
2022/04/18 07:27:13;;;;;;;4.03;2.30;;;12.90;99.90;;;;;;4891881;29;20672;-82
2022/04/18 07:29:41;;;;;;;4.23;2.33;;;13.10;99.90;;;;;;4892365;29;20225;-79
2022/04/18 07:32:08;;;;;;;3.40;2.20;;;13.30;99.90;;;;;;4891786;29;20197;-76
2022/04/18 07:34:34;;;;;;;3.20;2.13;;;13.30;99.90;;;;;;4890676;29;20204;-76
2022/04/18 07:37:01;;;;;;;4.03;2.30;;;13.30;99.90;;;;;;4885628;29;20660;-77
2022/04/18 07:39:27;;;;;;;3.77;2.53;;;13.40;99.90;;;;;;4890381;29;20235;-79
2022/04/18 07:41:54;;;;;;;4.03;2.30;;;13.50;99.90;;;;;;4889652;29;20722;-74
2022/04/18 07:44:22;;;;;;;5.73;2.77;;;13.50;99.90;;;;;;4892258;29;20286;-74
2022/04/18 07:46:48;;;;;;;4.17;2.40;;;13.30;99.90;;;;;;4891164;29;20233;-74
2022/04/18 07:49:15;;;;;;;5.20;2.70;;;13.30;99.90;;;;;;4892580;29;20288;-75
2022/04/18 07:51:42;;;;;;;4.00;2.60;;;13.50;99.90;;;;;;4889078;29;20244;-75
2022/04/18 07:54:12;;;;;;;4.77;2.80;;;13.50;99.90;;;;;;4890989;29;20737;-78
2022/04/18 07:56:39;;;;;;;6.47;2.30;;;13.30;99.90;;;;;;4884229;29;20213;-79
2022/04/18 07:59:05;;;;;;;6.77;3.07;;;13.30;99.90;;;;;;4892209;29;20512;-78
2022/04/18 08:01:33;;;;;;;3.70;2.73;;;13.20;99.90;;;;;;4890964;29;20218;-80
2022/04/18 08:04:01;;;;;;;3.80;2.37;;;13.20;99.90;;;;;;4891494;29;20379;-78
2022/04/18 08:06:29;;;;;;;6.10;2.97;;;13.30;99.90;;;;;;4889028;29;20211;-76
2022/04/18 08:08:56;;;;;;;6.87;3.30;;;13.40;99.90;;;;;;4891999;29;20241;-77
2022/04/18 08:11:23;;;;;;;3.77;2.87;;;13.50;99.90;;;;;;4891030;29;20265;-75
2022/04/18 08:13:50;;;;;;;4.63;3.00;;;13.50;99.90;;;;;;4888484;29;20215;-77
2022/04/18 08:16:18;;;;;;;4.37;2.87;;;13.50;99.90;;;;;;4891047;29;20207;-75
2022/04/18 08:18:45;;;;;;;4.30;2.67;;;13.70;99.90;;;;;;4892151;29;20225;-74
2022/04/18 08:21:14;;;;;;;4.77;2.33;;;13.90;99.90;;;;;;4888473;29;20204;-75
2022/04/18 08:23:42;;;;;;;4.47;2.80;;;14.10;99.90;;;;;;4892545;29;20206;-74
2022/04/18 08:26:09;;;;;;;3.70;2.67;;;14.30;99.90;;;;;;4888895;29;20663;-76
2022/04/18 08:28:35;;;;;;;6.70;2.80;;;14.30;99.90;;;;;;4889954;29;20208;-76
2022/04/18 08:31:02;;;;;;;4.43;2.93;;;14.30;99.90;;;;;;4890361;29;20205;-76
2022/04/18 08:33:29;;;;;;;4.20;2.97;;;14.40;99.90;;;;;;4890893;29;20200;-74
2022/04/18 08:35:57;;;;;;;6.57;3.03;;;14.30;99.60;;;;;;4892896;29;20213;-72
2022/04/18 08:38:25;;;;;;;6.27;2.90;;;14.00;99.90;;;;;;4891971;29;20915;-74
2022/04/18 08:40:55;;;;;;;6.13;2.87;;;14.00;99.90;;;;;;4887808;29;20207;-75
2022/04/18 08:43:27;;;;;;;5.03;3.00;;;14.10;99.90;;;;;;4891613;29;20298;-74
2022/04/18 08:45:55;;;;;;;6.93;2.63;;;14.40;99.40;;;;;;4889720;29;20294;-74
2022/04/18 08:53:58;;;;;;;5.00;3.23;;;14.60;99.30;;;;;;4897355;29;20210;-74
2022/04/18 08:56:29;;;;;;;7.27;3.07;;;14.40;99.00;;;;;;4891557;29;20210;-76
2022/04/18 08:58:56;;;;;;;4.93;2.70;;;14.50;98.60;;;;;;4894748;29;20234;-77
2022/04/18 09:01:22;;;;;;;5.67;3.00;;;14.60;98.80;;;;;;4886479;29;20219;-74
2022/04/18 09:03:49;;;;;;;4.97;2.83;;;14.90;99.10;;;;;;4891096;29;20210;-74
2022/04/18 09:06:16;;;;;;;6.50;3.10;;;15.10;99.30;;;;;;4888320;29;20692;-76
2022/04/18 09:08:54;;;;;;;5.97;3.03;;;15.40;98.70;;;;;;4897992;29;20215;-73
2022/04/18 09:11:33;;;;;;;4.93;3.33;;;15.60;98.80;;;;;;4916040;29;20200;-73
2022/04/18 09:14:10;;;;;;;5.13;3.20;;;15.80;96.70;;;;;;4899508;29;20200;-77
2022/04/18 09:16:40;;;;;;;5.43;3.00;;;15.80;96.30;;;;;;4896956;29;20203;-74
2022/04/18 09:19:12;;;;;;;6.43;3.23;;;15.70;96.80;;;;;;4926081;29;20235;-74
2022/04/18 09:21:58;;;;;;;4.40;2.93;;;15.70;97.30;;;;;;4893725;29;20695;-79
2022/04/18 09:24:33;;;;;;;6.43;3.20;;;15.90;97.60;;;;;;4898790;29;20676;-74
2022/04/18 09:27:06;;;;;;;5.77;2.90;;;16.10;96.60;;;;;;4895055;29;20204;-73
2022/04/18 09:29:40;;;;;;;5.13;2.90;;;16.30;96.60;;;;;;4894076;29;20705;-75
2022/04/18 09:32:11;;;;;;;4.30;2.83;;;16.40;95.90;;;;;;4897600;29;20200;-77
2022/04/18 09:34:39;;;;;;;4.47;2.57;;;16.40;95.10;;;;;;4894806;29;20204;-75
2022/04/18 09:37:21;;;;;;;5.80;3.20;;;16.40;95.80;;;;;;4891846;29;20193;-75
2022/04/18 09:39:52;;;;;;;7.03;3.50;;;16.00;96.50;;;;;;4895352;29;20228;-76
2022/04/18 09:42:21;;;;;;;5.27;3.07;;;16.10;96.60;;;;;;4915115;29;20208;-75
2022/04/18 09:44:49;;;;;;;4.30;2.97;;;16.30;96.10;;;;;;4909222;29;20243;-74
2022/04/18 09:47:20;;;;;;;5.83;2.77;;;16.50;95.30;;;;;;4901523;29;20207;-74
2022/04/18 09:49:48;;;;;;;3.67;2.70;;;16.50;95.10;;;;;;4893697;29;20248;-75
2022/04/18 09:52:20;;;;;;;5.10;2.50;;;16.30;94.50;;;;;;4899217;29;20205;-77
2022/04/18 09:54:52;;;;;;;3.10;2.43;;;16.40;95.20;;;;;;4894348;29;20204;-74
2022/04/18 09:57:24;;;;;;;4.00;2.77;;;16.60;94.70;;;;;;4890478;29;20208;-77
2022/04/18 09:59:52;;;;;;;3.90;2.50;;;16.70;95.50;;;;;;4897019;29;20223;-74
2022/04/18 10:02:20;;;;;;;3.90;2.60;;;16.90;94.60;;;;;;4895812;29;20307;-74
2022/04/18 10:04:47;;;;;;;4.73;2.73;;;16.60;94.70;;;;;;4894906;29;20535;-76
2022/04/18 10:07:14;;;;;;;5.57;2.60;;;16.70;95.20;;;;;;4911192;29;20232;-75
2022/04/18 10:09:42;;;;;;;3.90;2.20;;;16.70;94.80;;;;;;4895195;29;20229;-76
2022/04/18 10:12:12;;;;;;;4.77;2.70;;;16.70;94.70;;;;;;4895560;29;20193;-75
2022/04/18 10:14:40;;;;;;;3.87;2.60;;;16.90;94.70;;;;;;4895604;29;20206;-73
2022/04/18 10:17:08;;;;;;;3.40;2.30;;;16.90;94.30;;;;;;4895880;29;20264;-73
2022/04/18 10:19:58;;;;;;;6.03;2.53;;;17.00;94.50;;;;;;4897536;29;20220;-73
2022/04/18 10:22:49;;;;;;;3.40;2.13;;;17.00;94.40;;;;;;4894694;29;20208;-74
2022/04/18 10:26:03;;;;;;;2.83;2.30;;;16.80;94.20;;;;;;4895302;29;20200;-75
2022/04/18 10:28:35;;;;;;;3.90;2.70;;;16.60;94.60;;;;;;4880392;29;20234;-77
2022/04/18 10:31:08;;;;;;;4.73;2.13;;;16.70;94.90;;;;;;4894880;29;20200;-75
2022/04/18 10:33:35;;;;;;;3.97;2.47;;;16.80;93.80;;;;;;4900472;29;20204;-76
2022/04/18 10:36:04;;;;;;;4.00;2.63;;;16.80;95.10;;;;;;4900790;29;20192;-74
2022/04/18 10:38:33;;;;;;;2.90;2.43;;;16.90;93.70;;;;;;4906269;29;20203;-73
2022/04/18 10:41:15;;;;;;;4.67;2.50;;;17.00;93.50;;;;;;4902367;29;20201;-74
2022/04/18 10:44:08;;;;;;;5.70;2.50;;;17.10;93.80;;;;;;4907426;29;20215;-74
2022/04/18 10:46:55;;;;;;;4.43;3.00;;;17.30;93.70;;;;;;4906397;29;20294;-75
2022/04/18 10:49:27;;;;;;;5.00;2.50;;;17.10;93.80;;;;;;4906340;29;20714;-76
2022/04/18 10:51:54;;;;;;;4.53;2.80;;;17.10;94.40;;;;;;4909119;29;20201;-74
2022/04/18 10:54:23;;;;;;;7.40;2.40;;;17.50;94.20;;;;;;4912326;29;20274;-77
2022/04/18 10:57:03;;;;;;;4.73;2.90;;;17.40;93.10;;;;;;4911435;29;20230;-75
2022/04/18 10:59:35;;;;;;;5.03;2.80;;;17.20;93.40;;;;;;4897661;29;20557;-76
2022/04/18 11:02:04;;;;;;;4.70;3.00;;;17.20;94.10;;;;;;4895234;29;20212;-75
2022/04/18 11:04:47;;;;;;;4.07;2.63;;;17.30;93.80;;;;;;4895685;29;20211;-73
2022/04/18 11:07:14;;;;;;;5.60;3.07;;;17.40;93.40;;;;;;4894324;29;20204;-75
2022/04/18 11:09:46;;;;;;;4.73;3.00;;;17.60;93.70;;;;;;4896979;29;20590;-74
2022/04/18 11:12:23;;;;;;;3.83;2.70;;;17.80;93.80;;;;;;4893208;29;20703;-76
2022/04/18 11:15:01;;;;;;;4.07;2.77;;;18.00;93.40;;;;;;4899374;29;20211;-76
2022/04/18 11:17:38;;;;;;;5.30;2.70;;;18.10;93.40;;;;;;4891395;29;20637;-76
2022/04/18 11:20:35;;;;;;;6.83;2.87;;;18.10;93.40;;;;;;4897605;29;20220;-74
2022/04/18 11:23:27;;;;;;;3.63;2.60;;;18.20;93.20;;;;;;4907797;29;20215;-75
2022/04/18 11:26:01;;;;;;;4.73;2.70;;;18.30;92.70;;;;;;4900670;29;20292;-75
2022/04/18 11:28:35;;;;;;;3.97;2.30;;;18.30;92.80;;;;;;4902114;29;20208;-75
2022/04/18 11:31:17;;;;;;;4.90;2.70;;;18.40;92.90;;;;;;4890406;29;20199;-74
2022/04/18 11:33:45;;;;;;;5.00;2.50;;;18.40;92.80;;;;;;4903435;29;20200;-77
2022/04/18 11:36:16;;;;;;;4.03;2.83;;;18.40;92.00;;;;;;4903492;29;20641;-76
2022/04/18 11:38:43;;;;;;;4.03;2.53;;;18.50;92.10;;;;;;4905162;29;20208;-75
2022/04/18 11:41:13;;;;;;;5.47;2.90;;;18.40;92.60;;;;;;4909231;29;20223;-75
2022/04/18 11:43:40;;;;;;;3.00;2.13;;;18.30;92.50;;;;;;4896957;29;20275;-74
2022/04/18 11:46:09;;;;;;;4.27;2.60;;;18.40;92.50;;;;;;4910198;29;20199;-74
2022/04/18 11:48:37;;;;;;;3.90;2.43;;;18.60;92.80;;;;;;4902075;29;20208;-77
2022/04/18 11:51:05;;;;;;;5.23;2.83;;;18.40;92.20;;;;;;4898004;29;20200;-75
2022/04/18 11:53:34;;;;;;;3.87;2.50;;;18.20;92.80;;;;;;4926503;29;20200;-81
2022/04/18 11:56:06;;;;;;;4.10;2.80;;;18.20;92.80;;;;;;4910808;29;20204;-75
2022/04/18 11:58:40;;;;;;;4.00;2.23;;;18.30;92.90;;;;;;4927010;29;20727;-75
2022/04/18 12:06:46;;;;;;;4.63;2.53;;;18.70;92.80;;;;;;4895489;29;20679;-72
2022/04/18 12:09:21;;;;;;;3.47;2.53;;;18.70;92.70;;;;;;4890296;29;20450;-73
2022/04/18 12:11:47;;;;;;;4.10;2.70;;;18.70;93.30;;;;;;4896418;29;20203;-74
2022/04/18 12:14:14;;;;;;;5.53;2.33;;;18.80;92.90;;;;;;4896254;29;20204;-73
2022/04/18 12:16:41;;;;;;;3.20;2.43;;;18.90;92.80;;;;;;4898976;29;20560;-71
2022/04/18 12:19:14;;;;;;;4.13;2.67;;;19.00;92.60;;;;;;4896645;29;20217;-73
2022/04/18 12:21:42;;;;;;;3.60;2.37;;;19.20;92.60;;;;;;4914821;29;20200;-75
2022/04/18 12:24:08;;;;;;;4.43;2.50;;;19.20;91.90;;;;;;4900557;29;20676;-76
2022/04/18 12:26:35;;;;;;;3.53;2.40;;;19.10;92.40;;;;;;4901685;29;20315;-75
2022/04/18 12:29:14;;;;;;;3.17;2.47;;;18.90;92.10;;;;;;4897594;29;20227;-77
2022/04/18 12:31:42;;;;;;;3.53;1.80;;;18.90;92.10;;;;;;4900868;29;20575;-74
2022/04/18 12:34:22;;;;;;;3.30;2.30;;;18.90;92.00;;;;;;4903816;29;20278;-75
2022/04/18 12:36:57;;;;;;;3.63;2.23;;;18.80;91.50;;;;;;4922064;29;20564;-73
2022/04/18 12:39:25;;;;;;;3.70;2.27;;;18.70;91.70;;;;;;4901197;29;20274;-74
2022/04/18 12:42:01;;;;;;;5.73;2.50;;;18.90;91.70;;;;;;4919209;29;20203;-74
2022/04/18 12:44:28;;;;;;;3.63;2.60;;;19.10;91.80;;;;;;4903922;29;20203;-73
2022/04/18 12:46:54;;;;;;;3.30;2.20;;;19.20;92.30;;;;;;4899882;29;20692;-73
2022/04/18 12:49:21;;;;;;;3.50;2.40;;;19.40;92.00;;;;;;4908297;29;20766;-74
2022/04/18 12:51:51;;;;;;;4.43;2.30;;;19.50;91.90;;;;;;4897742;29;20235;-76
2022/04/18 12:54:26;;;;;;;3.40;2.20;;;19.50;92.10;;;;;;4904029;29;20590;-74
2022/04/18 12:56:53;;;;;;;2.90;1.80;;;19.50;91.40;;;;;;4912333;29;20191;-73
2022/04/18 12:59:25;;;;;;;4.43;2.67;;;19.60;91.80;;;;;;4914840;29;20674;-73
2022/04/18 13:01:52;;;;;;;4.20;2.60;;;19.50;91.00;;;;;;4905601;29;20215;-75
2022/04/18 13:04:26;;;;;;;5.00;2.03;;;19.50;91.60;;;;;;4896753;29;20243;-73
2022/04/18 13:06:57;;;;;;;3.87;2.70;;;19.50;91.60;;;;;;4897566;29;20585;-73
2022/04/18 13:09:24;;;;;;;2.73;2.00;;;19.60;91.40;;;;;;4895226;29;20235;-74
2022/04/18 13:11:59;;;;;;;3.03;2.43;;;19.70;91.00;;;;;;4900081;29;20208;-74
2022/04/18 13:14:26;;;;;;;3.97;2.30;;;19.50;90.20;;;;;;4895868;29;20354;-75
2022/04/18 13:17:05;;;;;;;3.10;1.87;;;19.50;91.20;;;;;;4897216;29;20208;-75
2022/04/18 13:19:32;;;;;;;3.43;2.33;;;19.50;91.30;;;;;;4900001;29;20252;-73
2022/04/18 13:21:59;;;;;;;5.37;2.40;;;19.40;91.20;;;;;;4904388;29;20294;-73
2022/04/18 13:24:25;;;;;;;3.57;2.50;;;19.50;91.00;;;;;;4907928;29;20663;-74
2022/04/18 13:26:52;;;;;;;3.53;2.13;;;19.70;90.20;;;;;;4899613;29;20215;-73